Time;durP1;ratioP1;P1;durP2;ratioP2;P2;SDS_P1;SDS_P2;PMS_P1;PMS_P2;Temp;Humidity;BMP_temperature;BMP_pressure;BME280_temperature;BME280_humidity;BME280_pressure;Samples;Min_cycle;Max_cycle;Signal;HPM_P1;HPM_P2
2024/01/29 00:01:24;;;;;;;2.70;2.50;;;;;;;6.24;81.62;99927.50;5088968;28;20244;-56
2024/01/29 00:03:49;;;;;;;3.08;2.33;;;;;;;6.06;83.44;99928.81;5088875;28;20295;-56
2024/01/29 00:06:15;;;;;;;3.22;2.60;;;;;;;6.12;83.43;99950.97;5088971;28;20190;-56
2024/01/29 00:08:41;;;;;;;2.60;2.40;;;;;;;5.72;84.94;99902.28;5088841;28;20628;-56
2024/01/29 00:11:07;;;;;;;2.80;2.60;;;;;;;5.90;86.73;99952.38;5088934;28;20180;-56
2024/01/29 00:13:32;;;;;;;2.90;2.70;;;;;;;5.36;87.63;99872.41;5089243;28;20184;-56
2024/01/29 00:15:59;;;;;;;2.60;2.40;;;;;;;5.55;88.73;99904.44;5091287;28;20176;-56
2024/01/29 00:18:25;;;;;;;2.90;2.70;;;;;;;5.38;89.53;99888.63;5091314;28;20173;-56
2024/01/29 00:20:50;;;;;;;2.40;2.30;;;;;;;5.07;91.28;99859.41;5091124;28;20172;-56
2024/01/29 00:23:16;;;;;;;2.30;2.10;;;;;;;5.65;92.29;99935.88;5090926;28;20204;-59
2024/01/29 00:25:42;;;;;;;2.13;1.92;;;;;;;5.46;93.73;99922.63;5091220;28;20180;-56
2024/01/29 00:28:07;;;;;;;2.60;2.40;;;;;;;5.21;95.50;99924.09;5091203;28;20175;-56
2024/01/29 00:30:33;;;;;;;2.60;2.50;;;;;;;4.56;99.29;99870.84;5091441;28;20234;-56
2024/01/29 00:32:58;;;;;;;2.80;2.60;;;;;;;4.20;100.00;99840.84;5091147;28;20168;-56
2024/01/29 00:35:24;;;;;;;2.70;2.50;;;;;;;4.37;100.00;99878.97;5090924;28;20238;-56
2024/01/29 00:37:49;;;;;;;4.72;3.60;;;;;;;4.54;100.00;99918.72;5091076;28;20186;-56
2024/01/29 00:40:15;;;;;;;6.57;4.32;;;;;;;3.95;100.00;99838.81;5091057;28;20700;-56
2024/01/29 00:42:41;;;;;;;10.50;5.00;;;;;;;4.34;100.00;99926.00;5091036;28;20590;-56
2024/01/29 00:45:06;;;;;;;9.57;4.70;;;;;;;4.40;100.00;99928.44;5090969;28;20204;-56
2024/01/29 00:47:32;;;;;;;3.30;3.00;;;;;;;4.06;100.00;99859.94;5091024;28;20177;-56
2024/01/29 00:49:57;;;;;;;2.50;2.30;;;;;;;4.58;100.00;99930.63;5090981;28;20173;-56
2024/01/29 00:52:23;;;;;;;2.53;2.33;;;;;;;4.60;100.00;99928.88;5090981;28;20179;-56
2024/01/29 00:54:48;;;;;;;2.75;2.55;;;;;;;4.67;100.00;99924.47;5090893;28;20177;-56
2024/01/29 00:57:15;;;;;;;2.08;1.98;;;;;;;4.54;100.00;99913.59;5090848;28;20200;-56
2024/01/29 00:59:42;;;;;;;2.65;1.95;;;;;;;4.23;100.00;99845.09;5092489;28;20177;-56
2024/01/29 01:02:07;;;;;;;3.83;2.10;;;;;;;4.05;100.00;99805.34;5094485;28;20255;-56
2024/01/29 01:04:33;;;;;;;2.33;2.13;;;;;;;4.83;100.00;99939.47;5094415;28;20283;-56
2024/01/29 01:06:58;;;;;;;2.20;2.03;;;;;;;4.66;100.00;99935.59;5094107;28;20204;-56
2024/01/29 01:09:24;;;;;;;2.13;2.03;;;;;;;4.03;100.00;99848.03;5094385;28;20181;-56
2024/01/29 01:11:49;;;;;;;2.20;2.10;;;;;;;4.42;100.00;99892.50;5094305;28;20594;-56
2024/01/29 01:14:14;;;;;;;2.17;2.00;;;;;;;4.43;100.00;99902.72;5094289;28;20183;-57
2024/01/29 01:16:40;;;;;;;2.08;1.98;;;;;;;4.08;100.00;99855.66;5094190;28;20171;-56
2024/01/29 01:19:05;;;;;;;3.53;3.33;;;;;;;4.23;100.00;99894.63;5094204;28;20169;-56
2024/01/29 01:21:31;;;;;;;2.47;2.28;;;;;;;4.16;100.00;99867.44;5093976;28;20184;-56
2024/01/29 01:23:56;;;;;;;2.40;2.28;;;;;;;4.65;100.00;99924.50;5093676;28;20215;-56
2024/01/29 01:26:22;;;;;;;3.30;3.00;;;;;;;4.75;100.00;99949.06;5093998;28;20235;-56
2024/01/29 01:28:47;;;;;;;3.67;3.30;;;;;;;4.33;100.00;99841.47;5093941;28;20176;-56
2024/01/29 01:31:13;;;;;;;1.77;1.67;;;;;;;4.98;99.34;99923.78;5093956;28;20714;-56
2024/01/29 01:33:38;;;;;;;2.25;2.15;;;;;;;4.85;94.44;99878.75;5093780;28;20237;-56
2024/01/29 01:36:04;;;;;;;2.25;2.00;;;;;;;4.92;95.77;99926.47;5091177;28;20196;-56
2024/01/29 01:38:29;;;;;;;1.98;1.88;;;;;;;4.57;100.00;99903.31;5091334;28;20200;-56
2024/01/29 01:40:54;;;;;;;2.08;1.98;;;;;;;3.75;100.00;99811.06;5091297;28;20219;-56
2024/01/29 01:43:23;;;;;;;2.47;2.28;;;;;;;4.14;100.00;99865.78;5091213;28;20207;-56
2024/01/29 01:46:05;;;;;;;4.13;2.72;;;;;;;4.33;100.00;99891.00;5111377;28;20667;-56
2024/01/29 01:48:32;;;;;;;2.60;2.40;;;;;;;4.40;100.00;99890.00;5111612;28;20271;-56
2024/01/29 01:50:58;;;;;;;2.20;2.10;;;;;;;4.04;100.00;99844.63;5111381;28;20188;-56
2024/01/29 01:53:24;;;;;;;3.85;2.40;;;;;;;3.34;100.00;99805.00;5111403;28;20171;-56
2024/01/29 01:55:50;;;;;;;1.92;1.80;;;;;;;3.34;100.00;99885.13;5111231;28;20271;-56
2024/01/29 01:58:18;;;;;;;2.75;2.38;;;;;;;3.21;100.00;99837.59;5111657;28;20186;-56
2024/01/29 02:00:43;;;;;;;2.45;2.25;;;;;;;3.62;100.00;99894.03;5111204;28;20748;-56
2024/01/29 02:03:09;;;;;;;2.22;2.10;;;;;;;3.64;100.00;99878.66;5111210;28;20342;-56
2024/01/29 02:05:36;;;;;;;2.13;2.03;;;;;;;3.54;100.00;99837.03;5111022;28;20215;-56
2024/01/29 02:08:03;;;;;;;2.60;2.40;;;;;;;3.34;100.00;99799.88;5111108;28;20180;-56
2024/01/29 02:10:29;;;;;;;2.13;2.03;;;;;;;3.54;100.00;99866.88;5110670;28;20681;-56
2024/01/29 02:12:55;;;;;;;3.78;2.33;;;;;;;3.31;100.00;99890.31;5111007;28;20561;-56
2024/01/29 02:15:20;;;;;;;2.75;2.30;;;;;;;3.05;100.00;99860.91;5111273;28;20188;-56
2024/01/29 02:17:46;;;;;;;3.90;2.65;;;;;;;2.62;100.00;99812.13;5094277;28;20212;-56
2024/01/29 02:20:12;;;;;;;2.67;2.45;;;;;;;2.87;100.00;99894.41;5092590;28;20211;-56
2024/01/29 02:22:43;;;;;;;2.67;2.47;;;;;;;2.93;100.00;99905.38;5092459;28;20303;-56
2024/01/29 02:25:09;;;;;;;2.00;1.80;;;;;;;2.67;100.00;99824.84;5110461;28;20226;-56
2024/01/29 02:27:34;;;;;;;2.78;2.45;;;;;;;3.29;100.00;99894.63;5110700;28;20176;-56
2024/01/29 02:30:00;;;;;;;2.00;1.90;;;;;;;2.87;100.00;99825.41;5110347;28;20183;-56
2024/01/29 02:32:25;;;;;;;2.65;2.47;;;;;;;3.03;100.00;99860.09;5110582;28;20184;-56
2024/01/29 02:34:51;;;;;;;2.28;2.08;;;;;;;2.75;100.00;99805.13;5110499;28;20188;-56
2024/01/29 02:37:17;;;;;;;2.30;2.13;;;;;;;2.78;100.00;99811.03;5110429;28;20568;-56
2024/01/29 02:39:42;;;;;;;2.55;2.35;;;;;;;2.96;100.00;99841.44;5110691;28;20271;-56
2024/01/29 02:42:07;;;;;;;2.58;2.38;;;;;;;3.07;100.00;99826.78;5110409;28;20606;-56
2024/01/29 02:44:33;;;;;;;2.85;2.13;;;;;;;3.87;100.00;99923.47;5110128;28;20226;-56
2024/01/29 02:46:58;;;;;;;2.65;2.45;;;;;;;3.35;100.00;99829.69;5110262;28;20210;-56
2024/01/29 02:49:24;;;;;;;2.55;2.40;;;;;;;3.88;100.00;99909.78;5110249;28;20206;-56
2024/01/29 02:51:49;;;;;;;2.88;2.28;;;;;;;3.84;100.00;99908.16;5110185;28;20192;-56
2024/01/29 02:54:14;;;;;;;2.70;2.35;;;;;;;3.83;100.00;99909.03;5110227;28;20611;-56
2024/01/29 02:56:40;;;;;;;2.53;2.33;;;;;;;3.95;100.00;99916.47;5095279;28;20187;-56
2024/01/29 02:59:05;;;;;;;2.78;2.53;;;;;;;4.08;100.00;99928.19;5090079;28;20701;-56
2024/01/29 03:01:31;;;;;;;2.40;2.20;;;;;;;3.81;100.00;99877.50;5091216;28;20188;-56
2024/01/29 03:03:56;;;;;;;2.38;2.28;;;;;;;3.70;100.00;99858.94;5092297;28;20201;-56
2024/01/29 03:06:21;;;;;;;2.20;2.00;;;;;;;4.20;100.00;99939.94;5091852;28;20549;-56
2024/01/29 03:08:47;;;;;;;6.57;4.50;;;;;;;3.60;100.00;99841.19;5092061;28;20263;-56
2024/01/29 03:11:12;;;;;;;3.17;2.83;;;;;;;4.17;100.00;99935.72;5091993;28;20666;-56
2024/01/29 03:13:38;;;;;;;2.58;2.38;;;;;;;3.51;100.00;99888.25;5091897;28;20187;-57
2024/01/29 03:16:03;;;;;;;2.55;2.35;;;;;;;3.60;100.00;99918.81;5091997;28;20183;-56
2024/01/29 03:18:29;;;;;;;2.10;1.90;;;;;;;3.18;100.00;99873.47;5091576;28;20181;-56
2024/01/29 03:20:54;;;;;;;2.45;2.30;;;;;;;3.45;100.00;99893.47;5091624;28;20255;-56
2024/01/29 03:23:20;;;;;;;2.47;2.25;;;;;;;3.76;100.00;99933.06;5091250;28;20176;-57
2024/01/29 03:25:45;;;;;;;2.83;2.63;;;;;;;3.86;100.00;99942.25;5091792;28;20168;-56
2024/01/29 03:28:11;;;;;;;2.80;2.47;;;;;;;3.53;100.00;99878.00;5091759;28;20198;-56
2024/01/29 03:30:36;;;;;;;2.80;2.60;;;;;;;3.97;100.00;99942.91;5091742;28;20181;-56
2024/01/29 03:33:02;;;;;;;3.70;2.83;;;;;;;3.89;100.00;99952.44;5091390;28;20219;-56
2024/01/29 03:35:27;;;;;;;6.38;2.72;;;;;;;3.88;100.00;99945.63;5091419;28;20204;-56
2024/01/29 03:37:53;;;;;;;2.50;2.40;;;;;;;3.78;100.00;99927.88;5091639;28;20182;-56
2024/01/29 03:40:18;;;;;;;6.40;2.83;;;;;;;3.82;100.00;99953.44;5091599;28;20182;-56
2024/01/29 03:42:44;;;;;;;2.75;2.55;;;;;;;3.26;100.00;99846.03;5091571;28;20176;-56
2024/01/29 03:45:09;;;;;;;3.28;2.97;;;;;;;3.97;100.00;99942.06;5091496;28;20619;-57
2024/01/29 03:47:35;;;;;;;3.53;2.88;;;;;;;4.03;100.00;99950.47;5091602;28;20259;-56
2024/01/29 03:50:01;;;;;;;3.47;3.25;;;;;;;3.95;100.00;99942.09;5091573;28;20196;-56
2024/01/29 03:52:27;;;;;;;3.47;3.17;;;;;;;3.87;100.00;99913.22;5091430;28;20176;-56
2024/01/29 03:54:52;;;;;;;4.28;3.50;;;;;;;4.21;100.00;99955.25;5091214;28;20177;-56
2024/01/29 03:57:18;;;;;;;3.05;2.85;;;;;;;3.97;100.00;99916.47;5091486;28;20184;-56
2024/01/29 03:59:43;;;;;;;3.38;3.08;;;;;;;3.87;100.00;99894.44;5091184;28;20196;-57
2024/01/29 04:02:08;;;;;;;2.17;2.00;;;;;;;3.58;100.00;99854.03;5091411;28;20179;-56
2024/01/29 04:04:34;;;;;;;4.05;3.05;;;;;;;3.93;100.00;99917.38;5091356;28;20232;-56
2024/01/29 04:06:59;;;;;;;3.33;2.97;;;;;;;4.21;100.00;99959.56;5091390;28;20588;-57
2024/01/29 04:09:25;;;;;;;2.92;2.72;;;;;;;3.70;100.00;99874.28;5091378;28;20180;-55
2024/01/29 04:11:53;;;;;;;3.17;2.72;;;;;;;3.60;100.00;99867.63;5091260;28;20233;-56
2024/01/29 04:14:21;;;;;;;3.47;2.78;;;;;;;3.73;100.00;99893.88;5091277;28;20192;-56
2024/01/29 04:16:46;;;;;;;3.38;3.08;;;;;;;3.83;100.00;99898.78;5091245;28;20676;-56
2024/01/29 04:19:13;;;;;;;3.40;3.10;;;;;;;3.63;100.00;99875.25;5091269;28;20196;-56
2024/01/29 04:21:42;;;;;;;3.22;2.67;;;;;;;3.71;100.00;99909.25;5091100;28;20303;-55
2024/01/29 04:24:12;;;;;;;3.58;2.53;;;;;;;3.66;100.00;99903.34;5108835;28;20203;-56
2024/01/29 04:26:40;;;;;;;2.80;2.60;;;;;;;3.87;100.00;99925.19;5088426;28;20292;-56
2024/01/29 04:29:05;;;;;;;3.75;3.45;;;;;;;4.25;100.00;99976.56;5088656;28;20188;-55
2024/01/29 04:31:31;;;;;;;4.70;3.45;;;;;;;3.68;100.00;99876.00;5088601;28;20227;-56
2024/01/29 04:33:56;;;;;;;3.17;2.90;;;;;;;3.75;100.00;99885.28;5090803;28;20187;-56
2024/01/29 04:36:22;;;;;;;3.65;2.97;;;;;;;3.68;100.00;99885.41;5092718;28;20196;-57
2024/01/29 04:38:49;;;;;;;2.92;2.72;;;;;;;3.94;100.00;99932.72;5092513;28;20241;-56
2024/01/29 04:41:21;;;;;;;3.08;2.78;;;;;;;3.78;100.00;99902.28;5092276;28;20284;-56
2024/01/29 04:43:47;;;;;;;2.85;2.63;;;;;;;4.10;100.00;99964.88;5092156;28;20612;-56
2024/01/29 04:46:13;;;;;;;2.90;2.55;;;;;;;3.93;100.00;99933.59;5092350;28;20199;-56
2024/01/29 04:48:39;;;;;;;3.03;2.70;;;;;;;3.86;100.00;99931.16;5092203;28;20618;-56
2024/01/29 04:51:06;;;;;;;2.75;2.55;;;;;;;3.86;100.00;99926.88;5091969;28;20204;-56
2024/01/29 04:53:32;;;;;;;2.70;2.60;;;;;;;3.94;100.00;99929.31;5092157;28;20192;-56
2024/01/29 04:55:58;;;;;;;3.15;2.85;;;;;;;4.09;100.00;99945.22;5074820;28;20189;-56
2024/01/29 04:58:23;;;;;;;3.63;3.33;;;;;;;3.60;100.00;99895.78;5071837;28;20181;-56
2024/01/29 05:00:48;;;;;;;3.55;3.22;;;;;;;3.75;100.00;99941.59;5071811;28;20645;-56
2024/01/29 05:03:14;;;;;;;3.92;3.63;;;;;;;4.14;100.00;99996.41;5071739;28;20246;-56
2024/01/29 05:05:39;;;;;;;5.00;4.18;;;;;;;4.22;100.00;100005.63;5071680;28;20244;-56
2024/01/29 05:08:05;;;;;;;5.05;4.57;;;;;;;4.21;100.00;100011.63;5071703;28;20178;-56
2024/01/29 05:10:31;;;;;;;5.05;4.32;;;;;;;3.99;100.00;100000.06;5071785;28;20199;-56
2024/01/29 05:12:56;;;;;;;7.22;5.05;;;;;;;3.89;100.00;99985.72;5071541;28;20177;-56
2024/01/29 05:15:22;;;;;;;6.28;4.63;;;;;;;3.48;100.00;99913.91;5051494;28;20189;-56
2024/01/29 05:17:47;;;;;;;5.47;3.70;;;;;;;4.06;100.00;100013.59;5051526;28;20317;-56
2024/01/29 05:20:13;;;;;;;4.38;3.75;;;;;;;3.76;100.00;100004.72;5051437;28;20193;-56
2024/01/29 05:22:40;;;;;;;4.10;3.60;;;;;;;3.97;100.00;100019.72;5081024;28;20245;-56
2024/01/29 05:25:06;;;;;;;4.72;3.33;;;;;;;3.97;100.00;100029.97;5091574;28;20220;-56
2024/01/29 05:27:31;;;;;;;3.38;3.08;;;;;;;3.80;100.00;99997.84;5091581;28;20173;-56
2024/01/29 05:29:57;;;;;;;3.63;3.33;;;;;;;3.67;100.00;99981.81;5091758;28;20257;-56
2024/01/29 05:32:22;;;;;;;5.53;4.65;;;;;;;3.71;100.00;99983.47;5091474;28;20264;-56
2024/01/29 05:34:47;;;;;;;12.68;8.90;;;;;;;3.97;100.00;100029.97;5091436;28;20213;-56
2024/01/29 05:37:13;;;;;;;15.25;11.00;;;;;;;4.05;100.00;100030.69;5091425;28;20185;-56
2024/01/29 05:39:38;;;;;;;13.70;9.65;;;;;;;3.71;100.00;99983.47;5091229;28;20187;-56
2024/01/29 05:42:04;;;;;;;12.23;9.25;;;;;;;3.63;100.00;99989.59;5091423;28;20188;-56
2024/01/29 05:44:30;;;;;;;9.73;7.60;;;;;;;3.50;100.00;99986.34;5090385;28;20213;-55
2024/01/29 05:46:55;;;;;;;6.03;5.35;;;;;;;3.63;100.00;99999.81;5092589;28;20730;-56
2024/01/29 05:49:22;;;;;;;7.53;6.40;;;;;;;3.54;100.00;99992.28;5093243;28;20554;-55
2024/01/29 05:51:48;;;;;;;9.82;8.15;;;;;;;3.45;100.00;99985.56;5093446;28;20180;-56
2024/01/29 05:54:13;;;;;;;12.50;8.40;;;;;;;3.88;100.00;100054.88;5093325;28;20188;-55
2024/01/29 05:56:43;;;;;;;15.77;8.95;;;;;;;3.71;100.00;100019.31;5093346;28;20181;-55
2024/01/29 05:59:08;;;;;;;11.07;8.82;;;;;;;3.72;100.00;100015.00;5093285;28;20180;-56
2024/01/29 06:01:34;;;;;;;9.40;6.95;;;;;;;3.89;100.00;100069.34;5093316;28;20609;-56
2024/01/29 06:04:00;;;;;;;7.47;5.28;;;;;;;3.20;100.00;99974.03;5092895;28;20208;-56
2024/01/29 06:06:27;;;;;;;6.35;5.32;;;;;;;3.76;94.26;100078.97;5093213;28;20165;-56
2024/01/29 06:08:52;;;;;;;4.53;4.13;;;;;;;3.73;89.88;100081.56;5093143;28;20172;-55
2024/01/29 06:11:18;;;;;;;4.45;3.85;;;;;;;3.75;87.94;100086.66;5099521;28;20627;-55
2024/01/29 06:13:44;;;;;;;4.88;3.47;;;;;;;3.75;85.84;100079.84;5108168;28;20282;-56
2024/01/29 06:16:09;;;;;;;3.42;3.05;;;;;;;3.20;84.25;99994.47;5112912;28;20215;-55
2024/01/29 06:18:35;;;;;;;3.92;3.35;;;;;;;3.70;85.89;100094.41;5112810;28;20174;-55
2024/01/29 06:21:01;;;;;;;19.23;10.50;;;;;;;3.42;88.64;100038.50;5110139;28;20198;-57
2024/01/29 06:23:28;;;;;;;25.65;7.63;;;;;;;3.69;88.94;100068.81;5110493;28;20228;-56
2024/01/29 06:25:53;;;;;;;5.85;3.42;;;;;;;3.64;85.39;100040.75;5110391;28;20175;-55
2024/01/29 06:28:19;;;;;;;5.50;3.33;;;;;;;3.87;82.10;100082.22;5110360;28;20184;-55
2024/01/29 06:30:44;;;;;;;3.90;2.88;;;;;;;3.43;81.19;100035.94;5110275;28;20214;-55
2024/01/29 06:33:10;;;;;;;2.45;2.30;;;;;;;3.79;80.16;100089.13;5110262;28;20176;-55
2024/01/29 06:35:35;;;;;;;3.47;2.20;;;;;;;3.70;79.17;100099.53;5110376;28;20197;-55
2024/01/29 06:38:04;;;;;;;3.80;2.65;;;;;;;3.28;77.41;100031.00;5110189;28;20195;-56
2024/01/29 06:40:29;;;;;;;2.70;2.50;;;;;;;3.47;77.38;100098.13;5110088;28;20276;-56
2024/01/29 06:42:58;;;;;;;3.03;2.70;;;;;;;3.01;79.02;100046.75;5110159;28;20271;-56
2024/01/29 06:45:23;;;;;;;2.75;2.55;;;;;;;3.08;79.10;100055.16;5110099;28;20244;-55
2024/01/29 06:47:49;;;;;;;2.53;2.10;;;;;;;2.85;79.37;100012.00;5110083;28;20274;-57
2024/01/29 06:50:14;;;;;;;2.15;2.05;;;;;;;3.31;78.12;100099.19;5109971;28;20251;-61
2024/01/29 06:52:40;;;;;;;2.22;2.10;;;;;;;2.89;78.55;100023.03;5111637;28;20187;-56
2024/01/29 06:55:06;;;;;;;1.85;1.75;;;;;;;3.32;78.13;100090.69;5112119;28;20176;-57
2024/01/29 06:57:31;;;;;;;2.60;2.40;;;;;;;3.37;78.09;100088.88;5112509;28;20182;-57
2024/01/29 06:59:57;;;;;;;2.40;2.20;;;;;;;3.12;77.30;100047.47;5112346;28;20557;-56
2024/01/29 07:02:22;;;;;;;2.55;2.35;;;;;;;3.47;77.71;100100.69;5110859;28;20574;-57
2024/01/29 07:04:48;;;;;;;2.08;1.90;;;;;;;2.77;77.24;99972.91;5112125;28;20608;-56
2024/01/29 07:07:14;;;;;;;6.88;4.75;;;;;;;3.03;77.33;100003.25;5112122;28;20178;-57
2024/01/29 07:09:40;;;;;;;4.90;3.47;;;;;;;3.22;77.31;100022.59;5112091;28;20553;-56
2024/01/29 07:12:06;;;;;;;4.47;3.33;;;;;;;3.40;78.00;100038.56;5112036;28;20240;-57
2024/01/29 07:14:32;;;;;;;4.80;3.40;;;;;;;3.89;79.32;100100.94;5112036;28;20259;-57
2024/01/29 07:16:57;;;;;;;2.60;2.40;;;;;;;3.45;76.82;100003.47;5112016;27;20282;-57
2024/01/29 07:19:26;;;;;;;2.75;2.20;;;;;;;3.86;75.15;100049.78;5111978;28;20174;-57
2024/01/29 07:21:52;;;;;;;8.30;3.25;;;;;;;4.22;74.77;100114.94;5111817;28;20236;-57
2024/01/29 07:24:18;;;;;;;3.10;2.80;;;;;;;4.06;74.00;100055.44;5111791;28;20640;-57
2024/01/29 07:26:44;;;;;;;3.63;3.25;;;;;;;4.33;73.57;100087.44;5111820;28;20200;-57
2024/01/29 07:29:10;;;;;;;3.00;2.70;;;;;;;4.20;72.11;100068.84;5112109;28;20721;-56
2024/01/29 07:31:36;;;;;;;2.42;2.33;;;;;;;3.82;71.85;100017.44;5111780;28;20179;-56
2024/01/29 07:34:02;;;;;;;2.03;1.92;;;;;;;4.15;71.98;100101.38;5111764;28;20176;-56
2024/01/29 07:36:27;;;;;;;4.03;3.10;;;;;;;4.28;72.31;100115.69;5111829;28;20357;-56
2024/01/29 07:38:53;;;;;;;3.20;2.70;;;;;;;4.16;71.74;100095.41;5111685;28;20629;-56
2024/01/29 07:41:19;;;;;;;2.67;2.47;;;;;;;3.90;72.39;100048.84;5111384;28;20183;-56
2024/01/29 07:43:44;;;;;;;2.95;2.60;;;;;;;3.92;72.89;100049.66;5108927;28;20184;-56
2024/01/29 07:46:12;;;;;;;2.63;2.42;;;;;;;3.91;72.76;100032.63;5109232;28;20196;-56
2024/01/29 07:48:38;;;;;;;2.70;2.50;;;;;;;4.26;73.00;100086.69;5109200;28;20180;-56
2024/01/29 07:51:03;;;;;;;5.45;4.78;;;;;;;3.89;71.67;100026.69;5109139;28;20184;-56
2024/01/29 07:53:29;;;;;;;3.80;3.47;;;;;;;3.89;70.95;100003.66;5109144;28;20179;-56
2024/01/29 07:55:54;;;;;;;3.25;2.92;;;;;;;4.61;71.00;100122.78;5109133;28;20204;-57
2024/01/29 07:58:20;;;;;;;4.35;3.95;;;;;;;4.15;71.77;100027.09;5109005;28;20262;-56
2024/01/29 08:00:46;;;;;;;5.18;3.45;;;;;;;3.66;69.88;99928.94;5109109;28;20726;-56
2024/01/29 08:03:11;;;;;;;4.45;3.67;;;;;;;4.80;69.99;100129.31;5108916;28;20283;-56
2024/01/29 08:05:37;;;;;;;3.75;3.38;;;;;;;4.46;69.67;100074.38;5108898;28;20204;-56
2024/01/29 08:08:02;;;;;;;5.53;4.80;;;;;;;4.52;69.69;100130.66;5129905;27;20274;-57
2024/01/29 08:10:28;;;;;;;6.03;4.85;;;;;;;4.28;70.95;100073.84;5133535;27;20669;-56
2024/01/29 08:12:53;;;;;;;4.25;3.22;;;;;;;4.74;71.47;100126.84;5133477;27;20226;-56
2024/01/29 08:15:18;;;;;;;4.40;3.00;;;;;;;4.40;69.50;100059.13;5133456;27;20278;-56
2024/01/29 08:17:44;;;;;;;3.25;2.03;;;;;;;4.31;69.40;100036.19;5133378;27;20638;-56
2024/01/29 08:20:09;;;;;;;4.90;4.32;;;;;;;4.21;71.16;100047.47;5112641;28;20232;-56
2024/01/29 08:22:35;;;;;;;3.38;3.00;;;;;;;4.53;71.23;100096.47;5112487;28;20694;-56
2024/01/29 08:25:00;;;;;;;2.67;2.38;;;;;;;4.70;70.81;100127.78;5112659;28;20828;-56
2024/01/29 08:27:29;;;;;;;4.53;2.33;;;;;;;4.93;70.86;100148.72;5112634;28;20190;-56
2024/01/29 08:29:54;;;;;;;3.28;2.97;;;;;;;4.76;70.58;100129.38;5112422;28;20195;-56
2024/01/29 08:32:21;;;;;;;4.40;3.28;;;;;;;4.46;70.19;100081.22;5112552;28;20195;-56
2024/01/29 08:34:47;;;;;;;2.85;2.60;;;;;;;4.69;70.48;100140.63;5112457;28;20188;-56
2024/01/29 08:37:13;;;;;;;3.03;2.53;;;;;;;4.66;69.44;100146.63;5112463;28;20176;-56
2024/01/29 08:39:38;;;;;;;2.88;2.67;;;;;;;4.52;71.56;100166.53;5096905;28;20188;-56
2024/01/29 08:42:06;;;;;;;2.58;2.38;;;;;;;4.47;72.91;100158.09;5092057;28;20761;-56
2024/01/29 08:44:31;;;;;;;3.70;3.25;;;;;;;4.70;72.31;100181.63;5091742;28;20311;-56
2024/01/29 08:46:57;;;;;;;3.22;2.92;;;;;;;4.36;71.12;100108.72;5092006;28;20263;-56
2024/01/29 08:49:23;;;;;;;3.85;3.45;;;;;;;4.21;70.95;100070.53;5091541;28;20570;-56
2024/01/29 08:51:48;;;;;;;6.65;3.70;;;;;;;4.99;71.26;100183.66;5090774;28;20658;-56
2024/01/29 08:54:14;;;;;;;4.53;3.35;;;;;;;4.80;72.76;100161.78;5091039;28;20188;-56
2024/01/29 08:56:40;;;;;;;3.13;2.83;;;;;;;4.85;72.48;100183.06;5094474;28;20310;-56
2024/01/29 08:59:07;;;;;;;5.88;3.20;;;;;;;4.39;71.14;100103.56;5112414;28;20274;-56
2024/01/29 09:01:32;;;;;;;3.50;2.60;;;;;;;4.26;71.18;100089.25;5114018;28;20191;-56
2024/01/29 09:03:58;;;;;;;2.55;2.35;;;;;;;4.33;70.66;100092.56;5114725;27;20631;-56
2024/01/29 09:06:23;;;;;;;4.88;3.22;;;;;;;5.02;70.35;100183.63;5114761;27;20175;-56
2024/01/29 09:08:49;;;;;;;4.18;3.50;;;;;;;4.48;70.41;100112.81;5107613;28;20180;-56
2024/01/29 09:11:14;;;;;;;4.15;3.22;;;;;;;4.68;72.82;100138.94;5113418;28;20188;-56
2024/01/29 09:13:40;;;;;;;2.75;2.55;;;;;;;5.03;71.28;100186.16;5113722;28;20168;-56
2024/01/29 09:16:05;;;;;;;2.75;2.55;;;;;;;4.90;70.13;100166.72;5114526;28;20292;-56
2024/01/29 09:18:31;;;;;;;2.40;2.20;;;;;;;4.79;70.33;100142.97;5114534;28;20227;-56
2024/01/29 09:20:56;;;;;;;2.28;2.13;;;;;;;5.03;70.03;100175.91;5112974;28;20183;-56
2024/01/29 09:23:21;;;;;;;2.78;2.33;;;;;;;4.85;69.67;100165.13;5114485;28;20225;-56
2024/01/29 09:25:47;;;;;;;3.30;3.00;;;;;;;4.24;70.88;100082.44;5114002;28;20196;-56
2024/01/29 09:28:12;;;;;;;2.70;2.50;;;;;;;4.54;72.13;100098.16;5114127;28;20176;-56
2024/01/29 09:30:37;;;;;;;1.90;1.80;;;;;;;4.98;71.19;100140.94;5107409;28;20266;-56
2024/01/29 09:33:03;;;;;;;2.40;2.20;;;;;;;5.03;70.42;100140.00;5095329;28;20237;-56
2024/01/29 09:35:28;;;;;;;2.58;2.38;;;;;;;5.20;70.15;100148.19;5093641;28;20180;-56
2024/01/29 09:37:54;;;;;;;3.92;2.78;;;;;;;4.70;70.06;100047.44;5093569;28;20263;-56
2024/01/29 09:40:20;;;;;;;2.95;2.60;;;;;;;4.94;69.60;100103.38;5092512;28;20180;-56
2024/01/29 09:42:49;;;;;;;3.78;3.10;;;;;;;5.25;68.63;100132.72;5092867;28;20207;-56
2024/01/29 09:45:20;;;;;;;3.88;3.17;;;;;;;5.43;69.87;100140.88;5093533;28;20240;-56
2024/01/29 09:47:47;;;;;;;6.53;3.35;;;;;;;5.31;69.16;100130.03;5093946;28;20557;-56
2024/01/29 09:50:16;;;;;;;3.90;3.10;;;;;;;4.95;69.97;100105.94;5093516;28;20172;-57
2024/01/29 09:52:43;;;;;;;4.15;3.45;;;;;;;5.48;68.97;100140.81;5093481;28;20180;-57
2024/01/29 09:55:10;;;;;;;3.85;3.13;;;;;;;5.23;70.37;100071.16;5093376;28;20181;-57
2024/01/29 09:57:35;;;;;;;3.15;2.80;;;;;;;5.69;70.01;100138.63;5093356;28;20176;-57
2024/01/29 10:00:01;;;;;;;3.25;2.80;;;;;;;5.92;69.18;100125.28;5093359;28;20184;-57
2024/01/29 10:02:27;;;;;;;3.25;2.95;;;;;;;6.23;68.40;100134.81;5093230;28;20254;-57
2024/01/29 10:04:52;;;;;;;3.72;2.65;;;;;;;6.17;66.89;100075.88;5093105;28;20204;-57
2024/01/29 10:07:18;;;;;;;4.32;2.80;;;;;;;6.62;66.47;100123.56;5093207;28;20546;-56
2024/01/29 10:09:43;;;;;;;3.35;3.05;;;;;;;6.29;65.24;100067.03;5092823;28;20191;-57
2024/01/29 10:12:20;;;;;;;4.35;2.78;;;;;;;6.75;65.44;100116.41;5096465;28;20207;-56
2024/01/29 10:14:45;;;;;;;2.83;2.63;;;;;;;6.49;64.23;100042.50;5116762;27;21195;-56
2024/01/29 10:17:11;;;;;;;2.88;2.63;;;;;;;6.80;63.78;100087.09;5110921;28;20195;-57
2024/01/29 10:19:39;;;;;;;3.40;3.10;;;;;;;6.99;63.15;100101.13;5110678;28;20211;-57
2024/01/29 10:22:12;;;;;;;3.05;2.70;;;;;;;6.83;61.14;100037.28;5110483;28;20187;-57
2024/01/29 10:24:37;;;;;;;3.00;2.80;;;;;;;6.75;59.82;100040.06;5069704;28;20220;-57
2024/01/29 10:27:07;;;;;;;2.70;2.50;;;;;;;6.66;60.99;100026.59;5069790;28;20181;-57
2024/01/29 10:29:48;;;;;;;8.00;5.72;;;;;;;7.32;61.44;100114.78;5069799;28;20189;-57
2024/01/29 10:32:14;;;;;;;5.03;3.90;;;;;;;7.44;60.02;100124.75;5029333;28;20743;-57
2024/01/29 10:34:40;;;;;;;6.93;3.90;;;;;;;7.22;58.11;100121.94;5029780;28;20286;-57
2024/01/29 10:37:06;;;;;;;3.58;3.33;;;;;;;7.23;58.72;100126.19;5029712;28;20218;-57
2024/01/29 10:39:34;;;;;;;2.95;2.72;;;;;;;7.23;58.93;100122.78;5028265;28;20200;-61
2024/01/29 10:42:01;;;;;;;3.35;2.83;;;;;;;7.08;58.20;100121.47;5029217;28;20658;-56
2024/01/29 10:44:32;;;;;;;2.60;2.38;;;;;;;7.01;57.70;100108.81;5029491;28;20218;-56
2024/01/29 10:46:59;;;;;;;2.95;2.65;;;;;;;7.02;57.24;100108.78;5029735;28;20183;-61
2024/01/29 10:49:28;;;;;;;2.90;2.55;;;;;;;7.03;57.95;100123.34;5029725;28;20265;-57
2024/01/29 10:51:53;;;;;;;4.25;2.78;;;;;;;7.09;57.30;100112.00;5029658;28;20630;-57
2024/01/29 10:54:20;;;;;;;3.15;2.85;;;;;;;6.92;57.66;100063.59;5029763;28;20190;-57
2024/01/29 10:56:45;;;;;;;4.20;3.80;;;;;;;6.85;56.73;100008.06;5048998;28;20723;-57
2024/01/29 10:59:13;;;;;;;4.18;2.90;;;;;;;7.52;55.40;100074.69;5049559;28;20189;-55
2024/01/29 11:01:38;;;;;;;4.00;3.15;;;;;;;7.69;55.28;100064.72;5049477;28;20192;-57
2024/01/29 11:04:07;;;;;;;2.50;2.30;;;;;;;8.11;52.48;100094.31;5085609;28;20601;-55
2024/01/29 11:06:44;;;;;;;2.95;2.22;;;;;;;7.83;51.67;100015.34;5091946;28;20571;-56
2024/01/29 11:09:12;;;;;;;4.00;3.60;;;;;;;7.97;52.45;100021.75;5092077;28;20199;-58
2024/01/29 11:11:40;;;;;;;5.70;3.97;;;;;;;8.49;53.15;100093.94;5103179;28;20282;-56
2024/01/29 11:14:08;;;;;;;3.92;3.50;;;;;;;8.40;53.91;100050.41;5091952;28;20211;-56
2024/01/29 11:16:35;;;;;;;4.05;3.30;;;;;;;8.23;52.48;100038.97;5092081;28;20172;-56
2024/01/29 11:19:02;;;;;;;2.70;2.50;;;;;;;8.16;52.27;100027.97;5091709;28;20188;-56
2024/01/29 11:21:27;;;;;;;5.53;4.45;;;;;;;8.31;52.00;100075.66;5091707;28;20181;-56
2024/01/29 11:23:56;;;;;;;5.70;3.60;;;;;;;8.07;51.73;100048.06;5109525;28;20187;-56
2024/01/29 11:26:24;;;;;;;3.25;2.90;;;;;;;7.86;51.37;100088.25;5109683;28;20197;-56
2024/01/29 11:29:14;;;;;;;3.47;2.42;;;;;;;7.73;52.62;100068.91;5109750;28;20184;-56